createdAt,value
2023-04-15T00:20:47.129Z,6.73
2023-04-15T00:50:50.526Z,7.10
2023-04-15T01:20:53.461Z,8.70
2023-04-15T01:50:57.078Z,6.63
2023-04-15T02:21:00.884Z,6.93
2023-04-15T02:51:04.176Z,7.23
2023-04-15T03:21:07.582Z,9.17
2023-04-15T03:51:10.762Z,10.10
2023-04-15T04:21:13.738Z,10.83
2023-04-15T04:51:17.137Z,14.00
2023-04-15T05:21:21.190Z,13.57
2023-04-15T05:51:24.405Z,12.17
2023-04-15T06:21:28.062Z,12.17
2023-04-15T06:51:31.227Z,13.43
2023-04-15T07:21:34.225Z,10.87
2023-04-15T07:51:37.673Z,11.25
2023-04-15T08:21:41.168Z,11.03
2023-04-15T08:51:44.434Z,10.67
2023-04-15T09:21:47.368Z,8.00
2023-04-15T09:52:01.658Z,3.57
2023-04-15T10:22:08.516Z,6.10
2023-04-15T10:52:11.968Z,3.10
2023-04-15T11:22:14.930Z,4.17
2023-04-15T11:52:18.240Z,2.70
2023-04-15T12:22:21.282Z,3.37
2023-04-15T12:52:24.541Z,14.40
2023-04-15T13:22:28.181Z,4.73
2023-04-15T13:52:31.699Z,10.47
2023-04-15T14:22:34.953Z,10.50
2023-04-15T14:52:38.349Z,7.80
2023-04-15T15:22:42.106Z,12.43
2023-04-15T15:52:45.745Z,11.70
2023-04-15T16:22:52.866Z,11.20
2023-04-15T16:52:55.796Z,10.67
2023-04-15T17:23:00.004Z,16.00
2023-04-15T17:53:02.853Z,14.13
2023-04-15T18:23:07.367Z,13.20
2023-04-15T18:53:10.268Z,18.40
2023-04-15T19:23:13.911Z,18.50
2023-04-15T19:53:16.884Z,17.20
2023-04-15T20:23:21.178Z,17.33
2023-04-15T20:53:24.070Z,19.17
2023-04-15T21:23:28.006Z,18.03
2023-04-15T21:53:30.964Z,19.60
2023-04-15T22:23:34.770Z,24.33
2023-04-15T22:53:38.274Z,22.03
2023-04-15T23:23:41.361Z,22.60
2023-04-15T23:53:44.282Z,23.77
